createdAt,value
2023-05-10T00:00:46.296Z,15.7415
2023-05-10T00:01:47.490Z,15.8183
2023-05-10T00:02:49.952Z,16.0052
2023-05-10T00:03:52.224Z,15.3269
2023-05-10T00:04:54.420Z,15.4351
2023-05-10T00:05:56.793Z,15.7813
2023-05-10T00:06:59.597Z,15.7580
2023-05-10T00:08:01.499Z,14.9996
2023-05-10T00:09:03.820Z,14.6349
2023-05-10T00:10:06.089Z,14.4907
2023-05-10T00:11:09.711Z,14.6562
2023-05-10T00:12:11.045Z,15.2034
2023-05-10T00:13:13.570Z,15.6367
2023-05-10T00:14:17.253Z,15.2275
2023-05-10T00:15:17.855Z,15.4104
2023-05-10T00:16:20.106Z,15.2967
2023-05-10T00:17:22.412Z,15.4146
2023-05-10T00:18:24.800Z,15.5441
2023-05-10T00:19:27.666Z,15.3436
2023-05-10T00:20:30.136Z,15.3797
2023-05-10T00:21:31.810Z,15.7904
2023-05-10T00:22:36.195Z,15.8494
2023-05-10T00:23:36.628Z,15.7755
2023-05-10T00:24:39.966Z,15.5219
2023-05-10T00:25:41.967Z,15.8012
2023-05-10T00:26:44.138Z,15.7706
2023-05-10T00:27:46.690Z,15.6422
2023-05-10T00:28:48.322Z,15.7637
2023-05-10T00:29:50.438Z,15.7275
2023-05-10T00:30:54.914Z,15.5619
2023-05-10T00:31:56.611Z,15.7389
2023-05-10T00:32:57.652Z,15.7575
2023-05-10T00:33:59.963Z,15.4854
2023-05-10T00:35:04.432Z,15.2973
2023-05-10T00:36:05.342Z,15.3000
2023-05-10T00:37:07.565Z,15.7292
2023-05-10T00:38:09.678Z,15.8650
2023-05-10T00:39:11.802Z,15.9197
2023-05-10T00:40:14.420Z,15.8287
2023-05-10T00:41:16.149Z,15.8234
2023-05-10T00:42:18.905Z,16.0570
2023-05-10T00:43:21.145Z,15.9780
2023-05-10T00:44:23.122Z,15.9073
2023-05-10T00:45:26.871Z,15.9967
2023-05-10T00:46:28.222Z,15.6353
2023-05-10T00:47:30.965Z,15.5962
2023-05-10T00:48:33.658Z,15.5777
2023-05-10T00:49:35.036Z,14.7895
2023-05-10T00:50:37.152Z,14.9504
2023-05-10T00:51:39.642Z,14.6242
2023-05-10T00:52:42.715Z,14.4021
2023-05-10T00:53:44.580Z,14.7726
2023-05-10T00:54:46.478Z,15.0470
2023-05-10T00:55:48.829Z,15.2502
2023-05-10T00:56:51.391Z,15.4415
2023-05-10T00:57:54.598Z,15.5668
2023-05-10T00:58:56.640Z,15.7306
2023-05-10T00:59:58.149Z,15.4377
2023-05-10T01:01:01.205Z,15.4867
2023-05-10T01:02:02.944Z,15.8550
2023-05-10T01:03:05.390Z,15.8532
2023-05-10T01:04:07.718Z,15.4662
2023-05-10T01:05:10.128Z,15.2597
2023-05-10T01:06:12.954Z,15.6669
2023-05-10T01:07:16.182Z,15.9153
2023-05-10T01:08:17.959Z,16.0982
2023-05-10T01:09:19.238Z,15.7224
2023-05-10T01:10:21.610Z,15.4980
2023-05-10T01:11:23.882Z,15.8953
2023-05-10T01:12:26.419Z,15.9424
2023-05-10T01:13:29.109Z,15.8699
2023-05-10T01:14:31.319Z,15.5982
2023-05-10T01:15:33.219Z,15.5045
2023-05-10T01:16:36.691Z,15.7406
2023-05-10T01:17:39.902Z,15.6627
2023-05-10T01:18:40.797Z,15.0675
2023-05-10T01:19:42.656Z,15.3643
2023-05-10T01:20:44.872Z,15.4057
2023-05-10T01:21:48.185Z,15.1318
2023-05-10T01:22:50.151Z,15.4331
2023-05-10T01:23:53.160Z,15.5795
2023-05-10T01:24:54.569Z,15.5624
2023-05-10T01:25:56.593Z,15.5219
2023-05-10T01:26:58.904Z,15.3536
2023-05-10T01:28:01.269Z,15.1556
2023-05-10T01:29:04.385Z,15.2134
2023-05-10T01:30:21.776Z,15.1465
2023-05-10T01:31:08.821Z,15.0162
2023-05-10T01:32:10.718Z,15.4662
2023-05-10T01:33:13.396Z,15.7951
2023-05-10T01:34:15.622Z,15.6202
2023-05-10T01:35:17.804Z,15.8394
2023-05-10T01:36:20.157Z,15.6745
2023-05-10T01:37:22.607Z,15.6026
2023-05-10T01:38:24.768Z,15.9974
2023-05-10T01:39:27.170Z,16.0933
2023-05-10T01:40:29.694Z,16.2281
2023-05-10T01:41:31.665Z,16.1805
2023-05-10T01:42:34.445Z,16.1954
2023-05-10T01:43:36.508Z,15.9573
2023-05-10T01:44:38.973Z,15.8118
2023-05-10T01:45:41.112Z,15.8859
2023-05-10T01:46:43.451Z,16.1810
2023-05-10T01:47:46.029Z,16.3023
2023-05-10T01:48:48.019Z,16.2838
2023-05-10T01:49:50.453Z,16.1538
2023-05-10T01:50:52.865Z,16.0699
2023-05-10T01:51:55.018Z,16.3249
2023-05-10T01:52:57.490Z,16.4573
2023-05-10T01:53:59.879Z,16.2905
2023-05-10T01:55:02.114Z,15.8975
2023-05-10T01:56:04.427Z,15.3383
2023-05-10T01:57:07.163Z,15.3367
2023-05-10T01:58:09.109Z,15.5265
2023-05-10T01:59:12.134Z,15.5773
2023-05-10T02:00:14.702Z,15.5428
2023-05-10T02:01:16.387Z,15.3532
2023-05-10T02:02:18.519Z,15.2295
2023-05-10T02:03:20.798Z,15.7339
2023-05-10T02:04:23.075Z,15.9823
2023-05-10T02:05:25.408Z,15.9311
2023-05-10T02:06:27.765Z,15.5379
2023-05-10T02:07:31.079Z,15.2757
2023-05-10T02:08:32.426Z,15.4524
2023-05-10T02:09:34.851Z,15.8454
2023-05-10T02:10:37.071Z,16.0626
2023-05-10T02:11:39.618Z,16.0041
2023-05-10T02:12:41.918Z,15.5430
2023-05-10T02:13:44.116Z,15.3786
2023-05-10T02:14:46.382Z,15.6264
2023-05-10T02:15:48.692Z,15.3652
2023-05-10T02:16:51.231Z,15.2217
2023-05-10T02:17:53.382Z,15.3932
2023-05-10T02:18:56.167Z,15.4709
2023-05-10T02:19:58.066Z,15.5652
2023-05-10T02:21:00.356Z,15.3946
2023-05-10T02:22:02.999Z,15.1584
2023-05-10T02:23:05.180Z,15.2237
2023-05-10T02:24:08.302Z,15.2404
2023-05-10T02:25:10.315Z,15.2057
2023-05-10T02:26:12.077Z,15.0819
2023-05-10T02:27:14.511Z,15.4889
2023-05-10T02:28:16.922Z,15.6856
2023-05-10T02:29:19.236Z,15.7528
2023-05-10T02:30:22.022Z,15.2682
2023-05-10T02:31:23.764Z,15.4048
2023-05-10T02:32:26.064Z,15.3539
2023-05-10T02:33:29.124Z,15.5207
2023-05-10T02:34:30.947Z,15.3665
2023-05-10T02:35:33.039Z,15.5303
2023-05-10T02:36:35.825Z,15.7408
2023-05-10T02:37:37.868Z,15.7450
2023-05-10T02:38:40.240Z,15.6785
2023-05-10T02:39:42.673Z,15.8345
2023-05-10T02:40:44.772Z,16.0748
2023-05-10T02:41:47.039Z,15.9985
2023-05-10T02:42:49.973Z,15.4012
2023-05-10T02:43:51.770Z,15.5352
2023-05-10T02:44:54.487Z,15.4762
2023-05-10T02:45:56.406Z,15.5243
2023-05-10T02:46:58.708Z,15.5461
2023-05-10T02:48:01.731Z,15.7542
2023-05-10T02:49:03.695Z,15.3140
2023-05-10T02:50:05.846Z,15.0830
2023-05-10T02:51:08.070Z,15.1547
2023-05-10T02:52:10.609Z,15.3559
2023-05-10T02:53:12.762Z,15.5693
2023-05-10T02:54:15.826Z,15.3360
2023-05-10T02:55:18.239Z,15.1578
2023-05-10T02:56:19.835Z,15.1900
2023-05-10T02:57:22.623Z,14.9282
2023-05-10T02:58:24.672Z,15.0107
2023-05-10T02:59:26.942Z,15.2059
2023-05-10T03:00:29.155Z,14.7833
2023-05-10T03:01:31.581Z,14.7477
2023-05-10T03:02:34.079Z,14.9188
2023-05-10T03:03:36.137Z,14.6473
2023-05-10T03:04:39.229Z,14.6767
2023-05-10T03:05:40.781Z,15.0494
2023-05-10T03:06:43.557Z,15.0517
2023-05-10T03:07:45.448Z,15.2315
2023-05-10T03:08:48.666Z,15.2927
2023-05-10T03:09:50.287Z,15.1658
2023-05-10T03:10:52.854Z,15.2166
2023-05-10T03:11:55.248Z,15.4600
2023-05-10T03:12:57.798Z,15.4288
2023-05-10T03:13:59.596Z,15.2221
2023-05-10T03:15:01.825Z,14.8594
2023-05-10T03:16:04.316Z,14.7982
2023-05-10T03:17:06.444Z,14.8236
2023-05-10T03:18:08.924Z,14.5877
2023-05-10T03:19:11.122Z,14.6752
2023-05-10T03:20:13.509Z,14.9332
2023-05-10T03:21:15.860Z,14.8452
2023-05-10T03:22:18.136Z,14.8986
2023-05-10T03:23:20.459Z,14.8632
2023-05-10T03:24:22.898Z,14.4475
2023-05-10T03:25:25.733Z,14.5321
2023-05-10T03:26:27.619Z,14.6707
2023-05-10T03:27:29.973Z,14.4255
2023-05-10T03:28:32.882Z,14.3921
2023-05-10T03:29:35.551Z,14.3705
2023-05-10T03:30:37.367Z,14.4885
2023-05-10T03:31:40.340Z,14.4853
2023-05-10T03:32:42.155Z,14.4502
2023-05-10T03:33:43.807Z,14.2223
2023-05-10T03:34:47.098Z,14.2833
2023-05-10T03:35:48.483Z,14.2639
2023-05-10T03:36:51.341Z,14.4712
2023-05-10T03:37:53.944Z,14.7288
2023-05-10T03:38:55.797Z,14.8939
2023-05-10T03:39:57.824Z,14.8714
2023-05-10T03:41:00.366Z,14.8053
2023-05-10T03:42:04.184Z,14.8728
2023-05-10T03:43:04.881Z,14.9595
2023-05-10T03:44:08.480Z,14.7995
2023-05-10T03:45:09.514Z,14.8659
2023-05-10T03:46:12.473Z,15.0626
2023-05-10T03:47:14.172Z,14.7904
2023-05-10T03:48:16.553Z,14.9900
2023-05-10T03:49:18.866Z,14.8131
2023-05-10T03:50:21.354Z,14.9126
2023-05-10T03:51:23.514Z,15.0875
2023-05-10T03:52:25.995Z,15.1364
2023-05-10T03:53:28.246Z,15.2036
2023-05-10T03:54:30.537Z,15.2014
2023-05-10T03:55:32.870Z,15.1149
2023-05-10T03:56:35.421Z,15.2012
2023-05-10T03:57:37.722Z,15.4293
2023-05-10T03:58:40.316Z,15.4983
2023-05-10T03:59:42.221Z,15.3759
2023-05-10T04:00:46.202Z,15.5875
2023-05-10T04:01:47.889Z,15.5049
2023-05-10T04:02:49.946Z,15.3605
2023-05-10T04:03:51.701Z,15.4251
2023-05-10T04:04:54.878Z,14.9304
2023-05-10T04:05:56.245Z,14.9366
2023-05-10T04:06:59.647Z,15.1471
2023-05-10T04:08:00.914Z,15.1910
2023-05-10T04:09:04.193Z,14.9773
2023-05-10T04:10:05.589Z,15.1191
2023-05-10T04:11:07.908Z,15.1289
2023-05-10T04:12:11.143Z,15.0385
2023-05-10T04:13:13.542Z,15.1885
2023-05-10T04:14:14.910Z,15.2410
2023-05-10T04:15:17.308Z,14.8035
2023-05-10T04:16:19.679Z,14.5710
2023-05-10T04:17:21.958Z,14.7646
2023-05-10T04:18:24.269Z,14.6950
2023-05-10T04:19:27.583Z,14.9874
2023-05-10T04:20:29.092Z,15.3100
2023-05-10T04:21:31.396Z,15.3507
2023-05-10T04:22:33.588Z,15.4293
2023-05-10T04:23:35.949Z,15.2893
2023-05-10T04:24:38.277Z,15.3774
2023-05-10T04:25:40.594Z,15.2713
2023-05-10T04:26:42.923Z,15.2762
2023-05-10T04:27:45.263Z,15.2967
2023-05-10T04:28:47.684Z,15.2095
2023-05-10T04:29:49.977Z,15.1660
2023-05-10T04:30:52.408Z,14.8799
2023-05-10T04:31:54.780Z,14.5361
2023-05-10T04:32:58.174Z,14.4431
2023-05-10T04:33:59.347Z,14.1818
2023-05-10T04:35:02.664Z,14.0594
2023-05-10T04:36:04.145Z,13.9548
2023-05-10T04:37:06.295Z,13.8189
2023-05-10T04:38:11.568Z,13.7675
2023-05-10T04:39:10.950Z,13.8093
2023-05-10T04:40:13.295Z,13.4294
2023-05-10T04:41:16.074Z,13.2557
2023-05-10T04:42:18.882Z,13.3885
2023-05-10T04:43:20.572Z,13.3220
2023-05-10T04:44:22.631Z,13.1807
2023-05-10T04:45:24.966Z,12.9328
2023-05-10T04:46:27.381Z,12.8778
2023-05-10T04:47:29.622Z,12.8191
2023-05-10T04:48:32.386Z,12.8538
2023-05-10T04:49:34.310Z,13.0325
2023-05-10T04:50:36.578Z,13.2924
2023-05-10T04:51:38.978Z,13.4562
2023-05-10T04:52:41.354Z,13.1182
2023-05-10T04:53:48.586Z,13.1925
2023-05-10T04:54:45.906Z,13.4980
2023-05-10T04:55:48.256Z,13.4297
2023-05-10T04:56:50.566Z,13.1821
2023-05-10T04:57:52.915Z,13.1362
2023-05-10T04:58:55.296Z,13.3574
2023-05-10T04:59:57.582Z,13.4052
2023-05-10T05:00:59.892Z,13.4551
2023-05-10T05:02:02.308Z,13.8667
2023-05-10T05:03:04.606Z,14.0605
2023-05-10T05:04:06.898Z,13.9308
2023-05-10T05:05:09.248Z,13.8238
2023-05-10T05:06:11.601Z,13.9475
2023-05-10T05:07:23.123Z,14.1266
2023-05-10T05:08:16.228Z,13.9296
2023-05-10T05:09:18.565Z,13.4778
2023-05-10T05:10:20.849Z,13.5189
2023-05-10T05:11:23.180Z,13.7637
2023-05-10T05:12:25.534Z,13.7040
2023-05-10T05:13:27.900Z,13.7110
2023-05-10T05:14:30.179Z,13.7635
2023-05-10T05:15:32.550Z,13.8471
2023-05-10T05:16:35.031Z,14.0573
2023-05-10T05:17:37.184Z,13.9094
2023-05-10T05:18:39.526Z,14.0022
2023-05-10T05:19:41.841Z,14.0365
2023-05-10T05:20:44.151Z,14.1280
2023-05-10T05:21:46.518Z,14.0662
2023-05-10T05:22:48.810Z,13.9051
2023-05-10T05:23:51.156Z,13.9427
2023-05-10T05:24:53.480Z,13.9826
2023-05-10T05:25:55.832Z,14.1674
2023-05-10T05:26:58.170Z,13.9755
2023-05-10T05:28:00.541Z,13.8832
2023-05-10T05:29:02.815Z,13.8187
2023-05-10T05:30:05.166Z,13.9820
2023-05-10T05:31:07.585Z,14.0049
2023-05-10T05:32:09.911Z,14.0040
2023-05-10T05:33:12.162Z,13.8927
2023-05-10T05:34:14.624Z,14.0011
2023-05-10T05:35:17.116Z,13.7977
2023-05-10T05:36:19.206Z,13.9953
2023-05-10T05:37:21.548Z,14.2036
2023-05-10T05:38:23.865Z,14.3136
2023-05-10T05:39:26.190Z,14.1173
2023-05-10T05:40:28.533Z,13.9552
2023-05-10T05:41:30.866Z,14.1192
2023-05-10T05:42:33.213Z,13.8840
2023-05-10T05:43:38.028Z,14.1342
2023-05-10T05:44:37.882Z,13.7686
2023-05-10T05:45:40.216Z,13.5445
2023-05-10T05:46:42.577Z,13.8767
2023-05-10T05:47:44.992Z,13.7414
2023-05-10T05:48:47.216Z,13.8574
2023-05-10T05:49:49.808Z,14.2926
2023-05-10T05:50:51.859Z,14.3492
2023-05-10T05:51:54.481Z,14.3779
2023-05-10T05:52:56.558Z,14.1309
2023-05-10T05:53:59.322Z,14.5020
2023-05-10T05:55:01.294Z,14.4124
2023-05-10T05:56:03.515Z,14.4075
2023-05-10T05:57:06.146Z,14.3048
2023-05-10T05:58:08.192Z,14.2103
2023-05-10T05:59:11.141Z,14.0808
2023-05-10T06:00:12.844Z,14.1197
2023-05-10T06:01:15.192Z,13.9840
2023-05-10T06:02:17.585Z,14.2264
2023-05-10T06:03:20.014Z,14.3340
2023-05-10T06:04:22.257Z,14.3015
2023-05-10T06:05:24.527Z,14.3498
2023-05-10T06:06:26.937Z,14.4613
2023-05-10T06:07:29.276Z,14.4157
2023-05-10T06:08:31.765Z,14.3970
2023-05-10T06:09:33.868Z,14.4244
2023-05-10T06:10:36.202Z,14.4894
2023-05-10T06:11:38.676Z,14.6132
2023-05-10T06:12:41.106Z,14.6827
2023-05-10T06:13:43.257Z,14.5421
2023-05-10T06:14:45.614Z,14.1945
2023-05-10T06:15:47.894Z,14.5890
2023-05-10T06:16:50.394Z,14.9927
2023-05-10T06:17:52.585Z,14.8022
2023-05-10T06:18:54.885Z,14.7933
2023-05-10T06:19:57.259Z,15.1298
2023-05-10T06:20:59.619Z,15.0797
2023-05-10T06:22:01.990Z,14.9511
2023-05-10T06:23:04.259Z,14.8748
2023-05-10T06:24:06.604Z,14.9793
2023-05-10T06:25:09.107Z,14.8182
2023-05-10T06:26:11.212Z,15.0570
2023-05-10T06:27:13.633Z,14.9250
2023-05-10T06:28:16.005Z,14.3578
2023-05-10T06:29:18.238Z,14.3792
2023-05-10T06:30:20.561Z,14.5103
2023-05-10T06:31:22.974Z,14.1680
2023-05-10T06:32:25.269Z,14.3394
2023-05-10T06:33:27.540Z,14.6418
2023-05-10T06:34:29.892Z,14.9382
2023-05-10T06:35:32.208Z,15.1304
2023-05-10T06:36:34.569Z,14.8013
2023-05-10T06:37:36.891Z,14.8801
2023-05-10T06:38:39.205Z,14.9513
2023-05-10T06:39:41.543Z,15.1587
2023-05-10T06:40:46.196Z,15.2188
2023-05-10T06:41:47.255Z,15.3574
2023-05-10T06:42:48.563Z,15.3378
2023-05-10T06:43:50.888Z,15.2873
2023-05-10T06:44:53.217Z,15.4075
2023-05-10T06:45:55.587Z,15.4569
2023-05-10T06:46:57.884Z,15.5083
2023-05-10T06:48:00.333Z,15.3701
2023-05-10T06:49:02.551Z,15.4633
2023-05-10T06:50:04.896Z,15.0481
2023-05-10T06:51:07.237Z,15.3554
2023-05-10T06:52:09.561Z,15.5343
2023-05-10T06:53:11.918Z,15.5572
2023-05-10T06:54:14.236Z,15.6160
2023-05-10T06:55:16.711Z,15.5853
2023-05-10T06:56:18.942Z,15.3547
2023-05-10T06:57:31.435Z,14.8832
2023-05-10T06:58:23.574Z,15.2077
2023-05-10T06:59:25.969Z,15.3269
2023-05-10T07:00:28.270Z,15.4382
2023-05-10T07:01:30.667Z,15.0069
2023-05-10T07:02:32.959Z,15.1923
2023-05-10T07:03:35.275Z,15.3497
2023-05-10T07:04:37.625Z,15.1151
2023-05-10T07:05:39.964Z,14.6402
2023-05-10T07:06:42.299Z,14.9237
2023-05-10T07:07:44.609Z,15.1371
2023-05-10T07:08:46.934Z,14.8325
2023-05-10T07:09:49.262Z,15.0597
2023-05-10T07:10:51.616Z,15.3214
2023-05-10T07:11:53.962Z,15.4239
2023-05-10T07:12:56.358Z,15.4533
2023-05-10T07:13:58.595Z,15.4756
2023-05-10T07:15:01.016Z,15.2251
2023-05-10T07:16:03.696Z,15.3757
2023-05-10T07:17:05.686Z,15.5986
2023-05-10T07:18:08.047Z,15.7751
2023-05-10T07:19:10.286Z,15.7057
2023-05-10T07:20:12.591Z,15.4222
2023-05-10T07:21:15.203Z,15.4619
2023-05-10T07:22:17.285Z,15.6171
2023-05-10T07:23:19.795Z,15.4624
2023-05-10T07:24:21.934Z,15.5774
2023-05-10T07:25:24.633Z,15.4301
2023-05-10T07:26:26.602Z,15.3919
2023-05-10T07:27:28.973Z,15.3017
2023-05-10T07:28:31.296Z,15.2982
2023-05-10T07:29:33.602Z,15.3735
2023-05-10T07:30:36.272Z,15.2088
2023-05-10T07:31:38.352Z,15.2043
2023-05-10T07:32:40.759Z,15.2166
2023-05-10T07:33:43.047Z,15.5405
2023-05-10T07:34:45.476Z,15.4600
2023-05-10T07:35:47.608Z,15.5790
2023-05-10T07:36:50.180Z,15.5190
2023-05-10T07:37:52.270Z,15.7802
2023-05-10T07:38:54.723Z,15.3539
2023-05-10T07:39:56.963Z,15.5810
2023-05-10T07:40:59.589Z,15.6220
2023-05-10T07:42:01.616Z,15.4248
2023-05-10T07:43:05.336Z,15.2793
2023-05-10T07:44:06.378Z,15.0775
2023-05-10T07:45:08.605Z,14.9684
2023-05-10T07:46:11.461Z,15.2490
2023-05-10T07:47:13.395Z,14.8988
2023-05-10T07:48:15.740Z,14.4399
2023-05-10T07:49:18.024Z,14.9840
2023-05-10T07:50:20.309Z,14.8983
2023-05-10T07:51:22.670Z,15.0481
2023-05-10T07:52:25.003Z,14.9849
2023-05-10T07:53:27.321Z,14.6518
2023-05-10T07:54:29.675Z,15.0109
2023-05-10T07:55:32.011Z,15.2713
2023-05-10T07:56:34.414Z,15.2626
2023-05-10T07:57:36.704Z,15.2083
2023-05-10T07:58:39.018Z,15.1518
2023-05-10T07:59:41.352Z,14.8561
2023-05-10T08:00:43.678Z,14.9838
2023-05-10T08:01:46.040Z,15.0866
2023-05-10T08:02:48.440Z,14.7404
2023-05-10T08:03:50.749Z,14.3091
2023-05-10T08:04:52.996Z,14.6627
2023-05-10T08:05:55.312Z,14.8803
2023-05-10T08:06:57.659Z,14.8694
2023-05-10T08:08:00.064Z,14.8271
2023-05-10T08:09:02.415Z,14.6945
2023-05-10T08:10:05.410Z,14.6551
2023-05-10T08:11:06.967Z,14.7461
2023-05-10T08:12:09.620Z,14.8238
2023-05-10T08:13:11.676Z,14.5385
2023-05-10T08:14:13.986Z,14.2699
2023-05-10T08:15:16.553Z,14.6500
2023-05-10T08:16:18.730Z,14.7914
2023-05-10T08:17:22.100Z,13.9726
2023-05-10T08:18:23.376Z,14.1384
2023-05-10T08:19:25.633Z,14.4660
2023-05-10T08:20:27.971Z,14.7072
2023-05-10T08:21:30.307Z,14.4564
2023-05-10T08:22:32.640Z,14.2517
2023-05-10T08:23:34.993Z,13.8227
2023-05-10T08:24:37.315Z,14.0447
2023-05-10T08:25:39.638Z,14.4348
2023-05-10T08:26:41.950Z,14.6315
2023-05-10T08:27:44.298Z,14.8890
2023-05-10T08:28:46.632Z,14.7258
2023-05-10T08:29:50.462Z,14.6509
2023-05-10T08:30:51.265Z,14.2261
2023-05-10T08:31:53.688Z,14.3794
2023-05-10T08:32:55.970Z,14.7121
2023-05-10T08:33:58.360Z,14.8719
2023-05-10T08:35:00.608Z,14.9896
2023-05-10T08:36:02.947Z,14.9652
2023-05-10T08:37:05.265Z,15.1645
2023-05-10T08:38:07.588Z,15.3393
2023-05-10T08:39:22.837Z,15.2631
2023-05-10T08:40:12.275Z,15.3696
2023-05-10T08:41:14.585Z,15.5677
2023-05-10T08:42:16.925Z,15.7030
2023-05-10T08:43:19.295Z,15.6572
2023-05-10T08:44:21.642Z,15.5837
2023-05-10T08:45:23.941Z,15.4600
2023-05-10T08:46:26.341Z,14.9150
2023-05-10T08:47:28.624Z,14.7873
2023-05-10T08:48:30.918Z,14.8102
2023-05-10T08:49:33.308Z,14.8204
2023-05-10T08:50:35.595Z,15.2290
2023-05-10T08:51:37.910Z,15.2355
2023-05-10T08:52:40.249Z,15.3171
2023-05-10T08:53:42.573Z,15.2866
2023-05-10T08:54:44.953Z,15.4246
2023-05-10T08:55:47.230Z,15.1200
2023-05-10T08:56:49.982Z,15.0777
2023-05-10T08:57:51.902Z,14.9954
2023-05-10T08:58:54.365Z,15.3739
2023-05-10T08:59:56.652Z,15.6089
2023-05-10T09:00:58.937Z,15.7117
2023-05-10T09:02:01.244Z,15.6612
2023-05-10T09:03:03.633Z,15.6518
2023-05-10T09:04:05.981Z,15.4636
2023-05-10T09:05:08.395Z,15.6687
2023-05-10T09:06:10.756Z,15.5681
2023-05-10T09:07:12.973Z,15.6396
2023-05-10T09:08:15.249Z,15.6925
2023-05-10T09:09:17.555Z,15.9184
2023-05-10T09:10:19.989Z,15.9945
2023-05-10T09:11:22.238Z,15.8961
2023-05-10T09:12:25.774Z,15.8154
2023-05-10T09:13:26.966Z,15.8659
2023-05-10T09:14:29.261Z,15.9489
2023-05-10T09:15:31.571Z,15.9560
2023-05-10T09:16:34.245Z,15.8129
2023-05-10T09:17:36.586Z,15.6692
2023-05-10T09:18:38.688Z,15.4609
2023-05-10T09:19:41.683Z,15.3165
2023-05-10T09:20:43.322Z,15.1242
2023-05-10T09:21:46.024Z,15.2421
2023-05-10T09:22:47.940Z,15.7057
2023-05-10T09:23:50.821Z,15.6300
2023-05-10T09:24:52.674Z,15.4662
2023-05-10T09:25:55.032Z,15.5851
2023-05-10T09:26:57.303Z,15.7657
2023-05-10T09:27:59.567Z,15.9538
2023-05-10T09:29:01.888Z,15.9992
2023-05-10T09:30:04.271Z,15.7827
2023-05-10T09:31:06.728Z,15.2459
2023-05-10T09:32:08.928Z,15.5552
2023-05-10T09:33:12.142Z,15.7010
2023-05-10T09:34:13.640Z,15.5704
2023-05-10T09:35:16.289Z,15.8438
2023-05-10T09:36:18.247Z,16.0610
2023-05-10T09:37:20.595Z,16.1890
2023-05-10T09:38:22.937Z,16.1810
2023-05-10T09:39:25.232Z,15.7212
2023-05-10T09:40:28.572Z,15.2008
2023-05-10T09:41:30.124Z,15.0250
2023-05-10T09:42:32.296Z,15.2270
2023-05-10T09:43:34.636Z,15.5447
2023-05-10T09:44:37.021Z,15.5533
2023-05-10T09:45:39.441Z,15.2575
2023-05-10T09:46:41.806Z,15.5828
2023-05-10T09:47:44.625Z,15.9553
2023-05-10T09:48:46.314Z,15.8728
2023-05-10T09:49:48.875Z,15.6876
2023-05-10T09:50:51.065Z,15.8423
2023-05-10T09:51:53.483Z,15.7137
2023-05-10T09:52:55.825Z,15.6652
2023-05-10T09:53:57.988Z,15.7379
2023-05-10T09:55:00.414Z,15.6406
2023-05-10T09:56:02.827Z,15.6525
2023-05-10T09:57:05.000Z,15.9453
2023-05-10T09:58:07.449Z,16.1485
2023-05-10T09:59:09.678Z,16.1458
2023-05-10T10:00:12.070Z,16.2798
2023-05-10T10:01:14.346Z,16.4536
2023-05-10T10:02:17.973Z,16.0890
2023-05-10T10:03:19.588Z,15.7704
2023-05-10T10:04:21.406Z,15.8708
2023-05-10T10:05:23.922Z,15.9460
2023-05-10T10:06:30.068Z,16.0025
2023-05-10T10:07:28.456Z,16.1894
2023-05-10T10:08:30.823Z,16.0310
2023-05-10T10:09:33.117Z,15.6956
2023-05-10T10:10:35.446Z,15.8959
2023-05-10T10:11:37.692Z,15.9825
2023-05-10T10:12:40.286Z,15.8240
2023-05-10T10:13:42.508Z,16.1681
2023-05-10T10:14:44.848Z,16.3788
2023-05-10T10:15:47.899Z,16.5526
2023-05-10T10:17:05.873Z,16.6111
2023-05-10T10:17:51.793Z,16.7303
2023-05-10T10:18:54.107Z,16.6394
2023-05-10T10:19:56.434Z,16.4524
2023-05-10T10:20:58.722Z,16.4885
2023-05-10T10:22:01.459Z,16.5203
2023-05-10T10:23:03.399Z,16.5817
2023-05-10T10:24:05.804Z,16.2902
2023-05-10T10:25:08.089Z,16.2798
2023-05-10T10:26:10.429Z,16.4680
2023-05-10T10:27:12.759Z,16.5966
2023-05-10T10:28:15.151Z,16.6033
2023-05-10T10:29:17.438Z,16.6153
2023-05-10T10:30:19.840Z,16.5786
2023-05-10T10:31:22.337Z,16.2920
2023-05-10T10:32:24.583Z,16.2620
2023-05-10T10:33:28.772Z,16.3407
2023-05-10T10:34:29.194Z,16.2762
2023-05-10T10:35:31.659Z,16.4331
2023-05-10T10:36:33.913Z,16.4164
2023-05-10T10:37:36.311Z,16.2717
2023-05-10T10:38:38.555Z,16.3236
2023-05-10T10:39:40.850Z,16.3234
2023-05-10T10:40:43.178Z,16.2931
2023-05-10T10:41:45.686Z,16.3679
2023-05-10T10:42:48.189Z,16.3085
2023-05-10T10:43:50.777Z,16.1269
2023-05-10T10:44:53.358Z,16.1741
2023-05-10T10:45:54.893Z,16.3643
2023-05-10T10:46:57.330Z,16.4658
2023-05-10T10:48:00.273Z,16.6171
2023-05-10T10:49:01.906Z,16.7079
2023-05-10T10:50:04.233Z,16.6808
2023-05-10T10:51:07.217Z,16.5435
2023-05-10T10:52:08.905Z,16.4077
2023-05-10T10:53:11.342Z,16.4462
2023-05-10T10:54:13.594Z,16.1939
2023-05-10T10:55:16.397Z,16.5548
2023-05-10T10:56:18.263Z,16.2809
2023-05-10T10:57:21.157Z,16.3932
2023-05-10T10:58:22.975Z,16.2742
2023-05-10T10:59:25.308Z,16.2497
2023-05-10T11:00:27.715Z,16.5931
2023-05-10T11:01:29.968Z,16.9282
2023-05-10T11:02:32.653Z,16.9946
2023-05-10T11:03:35.080Z,16.9609
2023-05-10T11:04:37.064Z,16.7015
2023-05-10T11:05:40.109Z,16.7526
2023-05-10T11:06:41.663Z,16.5615
2023-05-10T11:07:44.643Z,16.1334
2023-05-10T11:08:46.340Z,16.5907
2023-05-10T11:09:48.697Z,16.6403
2023-05-10T11:10:51.001Z,15.7453
2023-05-10T11:11:53.596Z,15.7023
2023-05-10T11:12:55.677Z,15.5626
2023-05-10T11:13:58.497Z,16.0952
2023-05-10T11:15:00.352Z,16.2152
2023-05-10T11:16:03.008Z,16.0955
2023-05-10T11:17:05.457Z,16.4674
2023-05-10T11:18:07.764Z,16.7329
2023-05-10T11:19:10.070Z,16.8826
2023-05-10T11:20:12.733Z,16.9431
2023-05-10T11:21:14.366Z,16.3990
2023-05-10T11:22:16.685Z,16.3826
2023-05-10T11:23:19.073Z,16.7907
2023-05-10T11:24:21.449Z,16.9031
2023-05-10T11:25:25.021Z,16.9947
2023-05-10T11:26:27.240Z,16.6854
2023-05-10T11:27:29.030Z,16.5909
2023-05-10T11:28:31.667Z,16.8009
2023-05-10T11:29:33.108Z,17.0270
2023-05-10T11:30:35.420Z,17.1231
2023-05-10T11:31:37.712Z,17.0982
2023-05-10T11:32:40.291Z,17.1474
2023-05-10T11:33:43.524Z,17.1630
2023-05-10T11:34:44.921Z,16.9856
2023-05-10T11:35:47.057Z,16.6514
2023-05-10T11:36:50.036Z,16.6607
2023-05-10T11:37:51.712Z,17.0085
2023-05-10T11:38:54.065Z,17.0555
2023-05-10T11:39:57.582Z,16.8821
2023-05-10T11:40:59.185Z,17.0611
2023-05-10T11:42:01.259Z,16.8739
2023-05-10T11:43:04.096Z,17.1765
2023-05-10T11:44:05.885Z,17.0932
2023-05-10T11:45:08.094Z,16.9480
2023-05-10T11:46:10.600Z,16.8879
2023-05-10T11:47:13.132Z,16.2974
2023-05-10T11:48:15.183Z,16.4444
2023-05-10T11:49:17.436Z,16.7484
2023-05-10T11:50:19.982Z,16.4882
2023-05-10T11:51:22.080Z,16.2484
2023-05-10T11:52:24.973Z,16.5569
2023-05-10T11:53:26.863Z,16.6347
2023-05-10T11:54:30.141Z,16.4749
2023-05-10T11:55:31.457Z,16.1774
2023-05-10T11:56:34.506Z,16.2313
2023-05-10T11:57:36.101Z,16.2192
2023-05-10T11:58:39.183Z,16.4093
2023-05-10T11:59:43.075Z,16.5561
2023-05-10T12:00:43.440Z,16.5599
2023-05-10T12:01:45.457Z,16.0018
2023-05-10T12:02:47.940Z,16.0719
2023-05-10T12:03:50.654Z,16.3563
2023-05-10T12:04:53.145Z,16.6380
2023-05-10T12:05:55.474Z,16.4509
2023-05-10T12:06:57.293Z,15.7216
2023-05-10T12:07:59.479Z,15.7566
2023-05-10T12:09:01.853Z,15.6059
2023-05-10T12:10:04.178Z,15.6398
2023-05-10T12:11:06.557Z,15.6503
2023-05-10T12:12:09.374Z,15.4618
2023-05-10T12:13:11.185Z,15.1961
2023-05-10T12:14:13.531Z,15.1438
2023-05-10T12:15:15.870Z,14.7668
2023-05-10T12:16:18.271Z,14.6794
2023-05-10T12:17:20.531Z,14.7452
2023-05-10T12:18:22.969Z,14.3506
2023-05-10T12:19:25.210Z,14.4780
2023-05-10T12:20:27.572Z,14.5254
2023-05-10T12:21:29.905Z,14.9159
2023-05-10T12:22:32.271Z,14.8968
2023-05-10T12:23:34.659Z,14.9024
2023-05-10T12:24:36.917Z,14.8872
2023-05-10T12:25:39.731Z,14.7346
2023-05-10T12:26:41.954Z,14.6885
2023-05-10T12:27:43.963Z,14.4936
2023-05-10T12:28:46.237Z,14.5376
2023-05-10T12:29:48.572Z,14.5977
2023-05-10T12:30:51.035Z,14.5517
2023-05-10T12:31:53.356Z,14.2214
2023-05-10T12:32:55.726Z,14.3558
2023-05-10T12:33:57.923Z,14.5831